»·PEaware :: N262H KBFL-KVGT

N262H :: KBFL-KVGT

FLIGHT INFORMATION

Flight Status: Arrived
Operator: Privately registered:
United States
More flights under this callsign
Pilot: Paul K. (16555)
Aircraft: PIPER PA-30 TWIN COMANCHE
(PA30)
More flights by this aircraft type
Origin: KBFL Meadows
United States
Destination: KVGT North Las Vegas
United States
More flights between these airports :: More routes between these airports
Route:
File this flight plan on PilotEdge
Remarks:
Altitude:
(Current/Filed)
11,500ft
Speed:
(Current/Filed)
160kts
Departed: 05-Oct-17 07:26 PM
Arrived: 05-Oct-17 08:45 PM
Distance/Time
Traveled:
193nm/1:19
Distance/Time
To Go:
Arrived

Flight Plot

Page will automatically refresh every two minutes.

Flight plan parsing failed; only flown route is shown


Map Options




Map Legend


Flown Route
Filed Route
Departure Airport
Arrival Airport
Navaid (VOR, NDB)
Fix

Horizontal Profiles

Position Reports

Time Latitude Longitude Heading Altitude Ground
Speed
05-Oct-17 19:23 35.431553 -119.048771 2 508ft 0kts
05-Oct-17 19:24 35.431553 -119.048771 2 508ft 0kts
05-Oct-17 19:25 35.430862 -119.049080 238 509ft 5kts
05-Oct-17 19:26 35.428603 -119.047614 135 509ft 25kts
05-Oct-17 19:27 35.425800 -119.044729 206 508ft 0kts
05-Oct-17 19:28 35.425800 -119.044729 206 508ft 0kts
05-Oct-17 19:29 35.425526 -119.046053 305 509ft 17kts
05-Oct-17 19:30 35.440160 -119.064954 318 1490ft 91kts
05-Oct-17 19:31 35.461351 -119.053829 34 2942ft 89kts
05-Oct-17 19:32 35.480645 -119.035460 26 4158ft 90kts
05-Oct-17 19:33 35.490092 -119.005528 75 5263ft 103kts
05-Oct-17 19:34 35.493997 -118.969413 77 6269ft 109kts
05-Oct-17 19:35 35.497496 -118.932350 77 7243ft 110kts
05-Oct-17 19:36 35.500822 -118.894894 78 8159ft 111kts
05-Oct-17 19:37 35.504073 -118.856909 78 9048ft 112kts
05-Oct-17 19:38 35.507420 -118.817231 79 9797ft 120kts
05-Oct-17 19:39 35.510834 -118.775719 79 10489ft 125kts
05-Oct-17 19:40 35.514470 -118.732071 80 11094ft 130kts
05-Oct-17 19:41 35.518137 -118.686295 80 11528ft 144kts
05-Oct-17 19:42 35.522301 -118.634023 80 11528ft 160kts
05-Oct-17 19:43 35.522639 -118.577341 86 11524ft 169kts
05-Oct-17 19:44 35.524268 -118.519759 83 11619ft 165kts
05-Oct-17 19:45 35.527212 -118.462793 82 11642ft 169kts
05-Oct-17 19:46 35.530670 -118.404722 82 11641ft 171kts
05-Oct-17 19:47 35.534221 -118.347339 83 11640ft 171kts
05-Oct-17 19:48 35.537525 -118.289379 83 11639ft 172kts
05-Oct-17 19:49 35.541067 -118.231138 83 11646ft 171kts
05-Oct-17 19:50 35.544676 -118.172586 83 11648ft 172kts
05-Oct-17 19:51 35.548294 -118.113222 83 11525ft 178kts
05-Oct-17 19:52 35.551943 -118.053090 83 11500ft 174kts
05-Oct-17 19:53 35.555507 -117.994151 83 11501ft 172kts
05-Oct-17 19:54 35.559039 -117.935389 83 11502ft 172kts
05-Oct-17 19:55 35.562104 -117.876645 84 11502ft 172kts
05-Oct-17 19:56 35.563637 -117.817577 86 11502ft 173kts
05-Oct-17 19:57 35.564810 -117.758683 86 11502ft 173kts
05-Oct-17 19:58 35.569291 -117.700272 58 11501ft 169kts
05-Oct-17 19:59 35.587927 -117.646940 66 11503ft 171kts
05-Oct-17 20:00 35.602366 -117.591018 70 11503ft 172kts
05-Oct-17 20:01 35.615095 -117.534287 72 11503ft 172kts
05-Oct-17 20:02 35.627211 -117.477266 72 11503ft 172kts
05-Oct-17 20:03 35.639048 -117.420084 72 11504ft 172kts
05-Oct-17 20:04 35.650810 -117.362810 72 11504ft 172kts
05-Oct-17 20:05 35.662059 -117.307254 73 11500ft 172kts
05-Oct-17 20:06 35.673627 -117.250152 73 11500ft 172kts
05-Oct-17 20:07 35.685273 -117.193028 73 11501ft 172kts
05-Oct-17 20:08 35.696873 -117.135871 73 11515ft 172kts
05-Oct-17 20:09 35.704934 -117.078838 69 11521ft 171kts
05-Oct-17 20:10 35.718631 -117.022407 71 11537ft 171kts
05-Oct-17 20:11 35.730950 -116.965393 73 11538ft 172kts
05-Oct-17 20:12 35.742749 -116.908140 73 11538ft 173kts
05-Oct-17 20:13 35.754415 -116.850686 73 11541ft 172kts
05-Oct-17 20:14 35.765799 -116.793842 73 11538ft 170kts
05-Oct-17 20:15 35.777085 -116.737403 74 11538ft 170kts
05-Oct-17 20:16 35.788376 -116.680706 74 11539ft 170kts
05-Oct-17 20:17 35.799608 -116.624034 74 11539ft 170kts
05-Oct-17 20:18 35.810830 -116.567302 74 11539ft 170kts
05-Oct-17 20:19 35.822031 -116.510479 74 11540ft 170kts
05-Oct-17 20:20 35.833218 -116.453599 74 11540ft 171kts
05-Oct-17 20:21 35.842644 -116.405613 74 11540ft 171kts
05-Oct-17 20:22 35.853582 -116.349736 75 11540ft 171kts
05-Oct-17 20:23 35.864388 -116.293390 75 11537ft 171kts
05-Oct-17 20:24 35.875415 -116.236381 74 11534ft 171kts
05-Oct-17 20:25 35.886622 -116.178696 75 11538ft 173kts
05-Oct-17 20:26 35.897852 -116.120724 74 11555ft 173kts
05-Oct-17 20:27 35.909070 -116.062712 74 11556ft 174kts
05-Oct-17 20:28 35.920429 -116.003836 75 11484ft 177kts
05-Oct-17 20:29 35.931713 -115.945144 75 11483ft 175kts
05-Oct-17 20:30 35.942892 -115.886858 74 11508ft 173kts
05-Oct-17 20:31 35.954010 -115.828794 74 11501ft 175kts
05-Oct-17 20:32 35.965949 -115.771157 77 11387ft 175kts
05-Oct-17 20:33 35.976417 -115.711134 75 10982ft 180kts
05-Oct-17 20:34 35.987617 -115.652167 75 10437ft 174kts
05-Oct-17 20:35 36.008880 -115.600019 51 9772ft 166kts
05-Oct-17 20:36 36.034169 -115.554594 52 9410ft 158kts
05-Oct-17 20:37 36.060608 -115.511024 46 9051ft 156kts
05-Oct-17 20:38 36.089447 -115.471529 39 8649ft 156kts
05-Oct-17 20:39 36.120707 -115.433418 38 8060ft 166kts
05-Oct-17 20:40 36.155953 -115.393017 44 6902ft 183kts
05-Oct-17 20:41 36.189763 -115.345856 31 5526ft 186kts
05-Oct-17 20:42 36.225516 -115.314917 98 4096ft 161kts
05-Oct-17 20:43 36.205162 -115.274264 103 3159ft 112kts
05-Oct-17 20:44 36.199740 -115.236849 111 3196ft 109kts
05-Oct-17 20:45 36.180992 -115.207037 128 3133ft 114kts
05-Oct-17 20:46 36.170620 -115.175904 48 2909ft 107kts
05-Oct-17 20:47 36.189690 -115.171334 310 2564ft 96kts
05-Oct-17 20:48 36.207772 -115.193929 312 2207ft 57kts
05-Oct-17 20:49 36.210406 -115.198379 236 2208ft 0kts
05-Oct-17 20:50 36.209937 -115.199236 311 2208ft 0kts
05-Oct-17 20:51 36.209937 -115.199236 311 2208ft 0kts
05-Oct-17 20:52 36.209937 -115.199236 311 2208ft 0kts

Navigation Log

Ident Type
Flight plan parsing failed, navigation log unavailable